sensor_id;sensor_type;location;lat;lon;timestamp;P1;durP1;ratioP1;P2;durP2;ratioP2
10701;SDS011;5402;50.004;8.246;2023-03-23T00:00:48;1.40;;;1.00;;
10701;SDS011;5402;50.004;8.246;2023-03-23T00:03:15;1.73;;;1.23;;
10701;SDS011;5402;50.004;8.246;2023-03-23T00:05:42;1.67;;;1.00;;
10701;SDS011;5402;50.004;8.246;2023-03-23T00:08:15;2.00;;;1.33;;
10701;SDS011;5402;50.004;8.246;2023-03-23T00:10:43;1.40;;;1.30;;
10701;SDS011;5402;50.004;8.246;2023-03-23T00:13:10;0.87;;;0.87;;
10701;SDS011;5402;50.004;8.246;2023-03-23T00:15:38;1.13;;;1.03;;
10701;SDS011;5402;50.004;8.246;2023-03-23T00:18:06;1.67;;;1.00;;
10701;SDS011;5402;50.004;8.246;2023-03-23T00:20:33;3.07;;;1.23;;
10701;SDS011;5402;50.004;8.246;2023-03-23T00:23:06;1.10;;;1.00;;
10701;SDS011;5402;50.004;8.246;2023-03-23T00:25:36;1.23;;;1.13;;
10701;SDS011;5402;50.004;8.246;2023-03-23T00:28:04;1.20;;;1.00;;
10701;SDS011;5402;50.004;8.246;2023-03-23T00:30:30;1.20;;;1.10;;
10701;SDS011;5402;50.004;8.246;2023-03-23T00:32:59;1.70;;;1.07;;
10701;SDS011;5402;50.004;8.246;2023-03-23T00:35:25;1.90;;;1.00;;
10701;SDS011;5402;50.004;8.246;2023-03-23T00:37:53;2.47;;;0.93;;
10701;SDS011;5402;50.004;8.246;2023-03-23T00:40:20;1.00;;;0.90;;
10701;SDS011;5402;50.004;8.246;2023-03-23T00:42:47;1.10;;;1.00;;
10701;SDS011;5402;50.004;8.246;2023-03-23T00:45:15;1.00;;;0.97;;
10701;SDS011;5402;50.004;8.246;2023-03-23T00:47:42;1.77;;;1.10;;
10701;SDS011;5402;50.004;8.246;2023-03-23T00:50:11;1.13;;;1.00;;
10701;SDS011;5402;50.004;8.246;2023-03-23T00:52:39;0.80;;;0.80;;
10701;SDS011;5402;50.004;8.246;2023-03-23T00:55:06;1.00;;;0.90;;
10701;SDS011;5402;50.004;8.246;2023-03-23T00:57:33;1.50;;;1.00;;
10701;SDS011;5402;50.004;8.246;2023-03-23T01:00:00;1.10;;;1.00;;
10701;SDS011;5402;50.004;8.246;2023-03-23T01:02:31;0.70;;;0.70;;
10701;SDS011;5402;50.004;8.246;2023-03-23T01:04:58;2.27;;;1.10;;
10701;SDS011;5402;50.004;8.246;2023-03-23T01:07:24;1.20;;;1.10;;
10701;SDS011;5402;50.004;8.246;2023-03-23T01:09:56;3.63;;;1.20;;
10701;SDS011;5402;50.004;8.246;2023-03-23T01:12:22;1.30;;;0.80;;
10701;SDS011;5402;50.004;8.246;2023-03-23T01:14:49;1.63;;;1.10;;
10701;SDS011;5402;50.004;8.246;2023-03-23T01:17:16;0.93;;;0.83;;
10701;SDS011;5402;50.004;8.246;2023-03-23T01:19:46;1.30;;;1.20;;
10701;SDS011;5402;50.004;8.246;2023-03-23T01:22:12;1.00;;;0.90;;
10701;SDS011;5402;50.004;8.246;2023-03-23T01:24:39;1.60;;;0.90;;
10701;SDS011;5402;50.004;8.246;2023-03-23T01:27:06;1.03;;;1.00;;
10701;SDS011;5402;50.004;8.246;2023-03-23T01:29:33;0.80;;;0.80;;
10701;SDS011;5402;50.004;8.246;2023-03-23T01:32:00;1.17;;;1.00;;
10701;SDS011;5402;50.004;8.246;2023-03-23T01:34:27;1.07;;;0.90;;
10701;SDS011;5402;50.004;8.246;2023-03-23T01:36:55;2.20;;;0.90;;
10701;SDS011;5402;50.004;8.246;2023-03-23T01:39:22;1.43;;;1.10;;
10701;SDS011;5402;50.004;8.246;2023-03-23T01:41:49;0.90;;;0.90;;
10701;SDS011;5402;50.004;8.246;2023-03-23T01:47:16;1.00;;;0.90;;
10701;SDS011;5402;50.004;8.246;2023-03-23T01:49:46;1.03;;;0.90;;
10701;SDS011;5402;50.004;8.246;2023-03-23T01:52:17;2.00;;;1.00;;
10701;SDS011;5402;50.004;8.246;2023-03-23T01:54:48;1.30;;;1.07;;
10701;SDS011;5402;50.004;8.246;2023-03-23T01:57:18;1.10;;;1.00;;
10701;SDS011;5402;50.004;8.246;2023-03-23T01:59:49;2.20;;;1.10;;
10701;SDS011;5402;50.004;8.246;2023-03-23T02:02:17;1.10;;;0.93;;
10701;SDS011;5402;50.004;8.246;2023-03-23T02:04:47;1.77;;;0.97;;
10701;SDS011;5402;50.004;8.246;2023-03-23T02:07:16;1.37;;;1.10;;
10701;SDS011;5402;50.004;8.246;2023-03-23T02:09:46;1.10;;;1.00;;
10701;SDS011;5402;50.004;8.246;2023-03-23T02:12:15;0.87;;;0.87;;
10701;SDS011;5402;50.004;8.246;2023-03-23T02:14:42;1.00;;;0.80;;
10701;SDS011;5402;50.004;8.246;2023-03-23T02:17:09;1.30;;;0.90;;
10701;SDS011;5402;50.004;8.246;2023-03-23T02:19:51;1.17;;;1.07;;
10701;SDS011;5402;50.004;8.246;2023-03-23T02:22:41;1.23;;;1.13;;
10701;SDS011;5402;50.004;8.246;2023-03-23T02:25:28;1.53;;;1.20;;
10701;SDS011;5402;50.004;8.246;2023-03-23T02:31:21;2.90;;;1.10;;
10701;SDS011;5402;50.004;8.246;2023-03-23T02:34:04;1.30;;;1.20;;
10701;SDS011;5402;50.004;8.246;2023-03-23T02:36:34;0.87;;;0.83;;
10701;SDS011;5402;50.004;8.246;2023-03-23T02:39:05;4.10;;;1.50;;
10701;SDS011;5402;50.004;8.246;2023-03-23T02:41:37;1.80;;;1.07;;
10701;SDS011;5402;50.004;8.246;2023-03-23T02:44:08;1.20;;;1.10;;
10701;SDS011;5402;50.004;8.246;2023-03-23T02:46:36;2.30;;;1.10;;
10701;SDS011;5402;50.004;8.246;2023-03-23T02:49:06;1.20;;;1.00;;
10701;SDS011;5402;50.004;8.246;2023-03-23T02:51:35;1.50;;;1.10;;
10701;SDS011;5402;50.004;8.246;2023-03-23T02:54:04;1.53;;;1.10;;
10701;SDS011;5402;50.004;8.246;2023-03-23T02:56:33;1.30;;;1.20;;
10701;SDS011;5402;50.004;8.246;2023-03-23T02:59:01;1.17;;;1.00;;
10701;SDS011;5402;50.004;8.246;2023-03-23T03:04:18;1.47;;;1.10;;
10701;SDS011;5402;50.004;8.246;2023-03-23T03:06:50;1.20;;;1.10;;
10701;SDS011;5402;50.004;8.246;2023-03-23T03:09:29;1.40;;;1.07;;
10701;SDS011;5402;50.004;8.246;2023-03-23T03:12:05;1.23;;;1.13;;
10701;SDS011;5402;50.004;8.246;2023-03-23T03:14:37;1.27;;;1.10;;
10701;SDS011;5402;50.004;8.246;2023-03-23T03:17:09;1.33;;;1.17;;
10701;SDS011;5402;50.004;8.246;2023-03-23T03:19:45;1.63;;;1.30;;
10701;SDS011;5402;50.004;8.246;2023-03-23T03:22:15;2.57;;;1.30;;
10701;SDS011;5402;50.004;8.246;2023-03-23T03:24:45;2.13;;;1.47;;
10701;SDS011;5402;50.004;8.246;2023-03-23T03:27:14;1.20;;;1.10;;
10701;SDS011;5402;50.004;8.246;2023-03-23T03:29:43;1.70;;;1.13;;
10701;SDS011;5402;50.004;8.246;2023-03-23T03:32:16;1.30;;;1.20;;
10701;SDS011;5402;50.004;8.246;2023-03-23T03:34:47;1.80;;;1.20;;
10701;SDS011;5402;50.004;8.246;2023-03-23T03:37:15;1.30;;;1.20;;
10701;SDS011;5402;50.004;8.246;2023-03-23T03:39:43;1.60;;;1.33;;
10701;SDS011;5402;50.004;8.246;2023-03-23T03:42:10;1.03;;;1.03;;
10701;SDS011;5402;50.004;8.246;2023-03-23T03:44:37;2.07;;;1.43;;
10701;SDS011;5402;50.004;8.246;2023-03-23T03:47:04;1.53;;;1.40;;
10701;SDS011;5402;50.004;8.246;2023-03-23T03:49:31;1.47;;;1.20;;
10701;SDS011;5402;50.004;8.246;2023-03-23T03:51:59;1.43;;;1.20;;
10701;SDS011;5402;50.004;8.246;2023-03-23T03:54:26;1.37;;;1.27;;
10701;SDS011;5402;50.004;8.246;2023-03-23T03:56:52;1.40;;;1.30;;
10701;SDS011;5402;50.004;8.246;2023-03-23T03:59:22;1.40;;;1.30;;
10701;SDS011;5402;50.004;8.246;2023-03-23T04:01:50;1.43;;;1.20;;
10701;SDS011;5402;50.004;8.246;2023-03-23T04:04:19;1.40;;;1.30;;
10701;SDS011;5402;50.004;8.246;2023-03-23T04:06:45;1.07;;;0.97;;
10701;SDS011;5402;50.004;8.246;2023-03-23T04:09:15;1.40;;;1.30;;
10701;SDS011;5402;50.004;8.246;2023-03-23T04:11:42;1.57;;;1.33;;
10701;SDS011;5402;50.004;8.246;2023-03-23T04:14:08;1.83;;;1.17;;
10701;SDS011;5402;50.004;8.246;2023-03-23T04:16:35;1.53;;;1.43;;
10701;SDS011;5402;50.004;8.246;2023-03-23T04:19:02;1.03;;;1.00;;
10701;SDS011;5402;50.004;8.246;2023-03-23T04:21:29;1.20;;;1.10;;
10701;SDS011;5402;50.004;8.246;2023-03-23T04:23:55;2.17;;;1.50;;
10701;SDS011;5402;50.004;8.246;2023-03-23T04:26:25;1.80;;;1.30;;
10701;SDS011;5402;50.004;8.246;2023-03-23T04:28:53;1.77;;;1.40;;
10701;SDS011;5402;50.004;8.246;2023-03-23T04:31:20;1.30;;;1.20;;
10701;SDS011;5402;50.004;8.246;2023-03-23T04:33:49;2.17;;;1.20;;
10701;SDS011;5402;50.004;8.246;2023-03-23T04:36:17;1.30;;;1.20;;
10701;SDS011;5402;50.004;8.246;2023-03-23T04:38:44;1.57;;;1.47;;
10701;SDS011;5402;50.004;8.246;2023-03-23T04:41:11;1.70;;;1.50;;
10701;SDS011;5402;50.004;8.246;2023-03-23T04:43:39;1.70;;;1.40;;
10701;SDS011;5402;50.004;8.246;2023-03-23T04:46:07;1.87;;;1.37;;
10701;SDS011;5402;50.004;8.246;2023-03-23T04:48:34;1.43;;;1.33;;
10701;SDS011;5402;50.004;8.246;2023-03-23T04:51:04;1.43;;;1.20;;
10701;SDS011;5402;50.004;8.246;2023-03-23T04:53:31;1.80;;;1.40;;
10701;SDS011;5402;50.004;8.246;2023-03-23T04:55:58;1.77;;;1.27;;
10701;SDS011;5402;50.004;8.246;2023-03-23T04:58:26;1.47;;;1.30;;
10701;SDS011;5402;50.004;8.246;2023-03-23T05:00:54;1.33;;;1.23;;
10701;SDS011;5402;50.004;8.246;2023-03-23T05:03:21;1.97;;;1.40;;
10701;SDS011;5402;50.004;8.246;2023-03-23T05:05:48;2.63;;;1.23;;
10701;SDS011;5402;50.004;8.246;2023-03-23T05:08:17;1.90;;;1.20;;
10701;SDS011;5402;50.004;8.246;2023-03-23T05:10:49;1.33;;;1.20;;
10701;SDS011;5402;50.004;8.246;2023-03-23T05:13:16;1.30;;;1.10;;
10701;SDS011;5402;50.004;8.246;2023-03-23T05:15:43;2.10;;;1.40;;
10701;SDS011;5402;50.004;8.246;2023-03-23T05:18:11;2.00;;;1.43;;
10701;SDS011;5402;50.004;8.246;2023-03-23T05:20:37;1.27;;;1.17;;
10701;SDS011;5402;50.004;8.246;2023-03-23T05:23:05;1.53;;;1.40;;
10701;SDS011;5402;50.004;8.246;2023-03-23T05:25:32;2.30;;;1.80;;
10701;SDS011;5402;50.004;8.246;2023-03-23T05:28:01;1.47;;;1.37;;
10701;SDS011;5402;50.004;8.246;2023-03-23T05:30:28;1.50;;;1.40;;
10701;SDS011;5402;50.004;8.246;2023-03-23T05:32:55;1.87;;;1.40;;
10701;SDS011;5402;50.004;8.246;2023-03-23T05:35:23;1.97;;;1.40;;
10701;SDS011;5402;50.004;8.246;2023-03-23T05:37:49;2.30;;;1.73;;
10701;SDS011;5402;50.004;8.246;2023-03-23T05:40:18;3.03;;;1.60;;
10701;SDS011;5402;50.004;8.246;2023-03-23T05:42:48;1.43;;;1.33;;
10701;SDS011;5402;50.004;8.246;2023-03-23T05:45:15;4.40;;;1.60;;
10701;SDS011;5402;50.004;8.246;2023-03-23T05:47:42;2.07;;;1.80;;
10701;SDS011;5402;50.004;8.246;2023-03-23T05:50:09;2.00;;;1.60;;
10701;SDS011;5402;50.004;8.246;2023-03-23T05:52:38;2.93;;;1.70;;
10701;SDS011;5402;50.004;8.246;2023-03-23T05:55:06;1.50;;;1.40;;
10701;SDS011;5402;50.004;8.246;2023-03-23T05:57:34;1.87;;;1.70;;
10701;SDS011;5402;50.004;8.246;2023-03-23T06:00:02;2.33;;;1.60;;
10701;SDS011;5402;50.004;8.246;2023-03-23T06:02:41;3.03;;;1.90;;
10701;SDS011;5402;50.004;8.246;2023-03-23T06:05:09;2.33;;;1.43;;
10701;SDS011;5402;50.004;8.246;2023-03-23T06:07:36;1.70;;;1.40;;
10701;SDS011;5402;50.004;8.246;2023-03-23T06:10:06;1.77;;;1.33;;
10701;SDS011;5402;50.004;8.246;2023-03-23T06:12:34;1.40;;;1.30;;
10701;SDS011;5402;50.004;8.246;2023-03-23T06:15:01;1.60;;;1.47;;
10701;SDS011;5402;50.004;8.246;2023-03-23T06:17:29;1.67;;;1.50;;
10701;SDS011;5402;50.004;8.246;2023-03-23T06:19:55;2.57;;;1.67;;
10701;SDS011;5402;50.004;8.246;2023-03-23T06:22:22;1.50;;;1.40;;
10701;SDS011;5402;50.004;8.246;2023-03-23T06:24:50;1.97;;;1.50;;
10701;SDS011;5402;50.004;8.246;2023-03-23T06:27:18;3.00;;;1.70;;
10701;SDS011;5402;50.004;8.246;2023-03-23T06:29:45;1.90;;;1.60;;
10701;SDS011;5402;50.004;8.246;2023-03-23T06:32:11;2.17;;;1.60;;
10701;SDS011;5402;50.004;8.246;2023-03-23T06:34:40;2.53;;;1.70;;
10701;SDS011;5402;50.004;8.246;2023-03-23T06:37:08;2.47;;;1.47;;
10701;SDS011;5402;50.004;8.246;2023-03-23T06:39:35;2.23;;;1.77;;
10701;SDS011;5402;50.004;8.246;2023-03-23T06:42:03;2.20;;;1.57;;
10701;SDS011;5402;50.004;8.246;2023-03-23T06:44:31;2.27;;;1.60;;
10701;SDS011;5402;50.004;8.246;2023-03-23T06:46:58;3.70;;;1.70;;
10701;SDS011;5402;50.004;8.246;2023-03-23T06:49:25;3.67;;;1.80;;
10701;SDS011;5402;50.004;8.246;2023-03-23T06:51:52;1.83;;;1.63;;
10701;SDS011;5402;50.004;8.246;2023-03-23T06:54:20;4.13;;;1.77;;
10701;SDS011;5402;50.004;8.246;2023-03-23T06:56:47;1.83;;;1.60;;
10701;SDS011;5402;50.004;8.246;2023-03-23T06:59:14;2.67;;;2.00;;
10701;SDS011;5402;50.004;8.246;2023-03-23T07:01:42;2.67;;;1.90;;
10701;SDS011;5402;50.004;8.246;2023-03-23T07:04:09;2.90;;;2.20;;
10701;SDS011;5402;50.004;8.246;2023-03-23T07:06:36;3.40;;;2.17;;
10701;SDS011;5402;50.004;8.246;2023-03-23T07:09:03;5.93;;;2.07;;
10701;SDS011;5402;50.004;8.246;2023-03-23T07:11:30;3.00;;;2.03;;
10701;SDS011;5402;50.004;8.246;2023-03-23T07:13:56;2.63;;;1.80;;
10701;SDS011;5402;50.004;8.246;2023-03-23T07:16:23;2.10;;;1.90;;
10701;SDS011;5402;50.004;8.246;2023-03-23T07:18:52;3.27;;;2.07;;
10701;SDS011;5402;50.004;8.246;2023-03-23T07:21:19;2.40;;;1.90;;
10701;SDS011;5402;50.004;8.246;2023-03-23T07:23:45;2.97;;;1.70;;
10701;SDS011;5402;50.004;8.246;2023-03-23T07:26:12;2.93;;;2.10;;
10701;SDS011;5402;50.004;8.246;2023-03-23T07:28:39;3.87;;;1.93;;
10701;SDS011;5402;50.004;8.246;2023-03-23T07:31:06;3.33;;;1.90;;
10701;SDS011;5402;50.004;8.246;2023-03-23T07:33:33;3.17;;;1.80;;
10701;SDS011;5402;50.004;8.246;2023-03-23T07:36:02;1.90;;;1.80;;
10701;SDS011;5402;50.004;8.246;2023-03-23T07:38:29;3.90;;;2.07;;
10701;SDS011;5402;50.004;8.246;2023-03-23T07:40:56;2.07;;;1.70;;
10701;SDS011;5402;50.004;8.246;2023-03-23T07:43:23;1.93;;;1.70;;
10701;SDS011;5402;50.004;8.246;2023-03-23T07:45:51;2.83;;;2.17;;
10701;SDS011;5402;50.004;8.246;2023-03-23T07:48:18;5.43;;;2.17;;
10701;SDS011;5402;50.004;8.246;2023-03-23T07:50:45;2.17;;;1.67;;
10701;SDS011;5402;50.004;8.246;2023-03-23T07:53:15;2.63;;;1.60;;
10701;SDS011;5402;50.004;8.246;2023-03-23T07:55:42;4.10;;;2.00;;
10701;SDS011;5402;50.004;8.246;2023-03-23T07:58:09;3.80;;;2.00;;
10701;SDS011;5402;50.004;8.246;2023-03-23T08:00:36;2.43;;;1.90;;
10701;SDS011;5402;50.004;8.246;2023-03-23T08:03:04;3.47;;;1.80;;
10701;SDS011;5402;50.004;8.246;2023-03-23T08:05:32;2.13;;;1.67;;
10701;SDS011;5402;50.004;8.246;2023-03-23T08:07:59;8.60;;;6.37;;
10701;SDS011;5402;50.004;8.246;2023-03-23T08:10:27;4.80;;;3.07;;
10701;SDS011;5402;50.004;8.246;2023-03-23T08:12:55;2.57;;;1.73;;
10701;SDS011;5402;50.004;8.246;2023-03-23T08:15:24;2.73;;;1.90;;
10701;SDS011;5402;50.004;8.246;2023-03-23T08:17:51;3.43;;;1.83;;
10701;SDS011;5402;50.004;8.246;2023-03-23T08:20:18;3.13;;;1.70;;
10701;SDS011;5402;50.004;8.246;2023-03-23T08:22:49;3.07;;;1.80;;
10701;SDS011;5402;50.004;8.246;2023-03-23T08:25:18;2.63;;;1.90;;
10701;SDS011;5402;50.004;8.246;2023-03-23T08:27:47;4.33;;;2.00;;
10701;SDS011;5402;50.004;8.246;2023-03-23T08:30:15;3.60;;;1.63;;
10701;SDS011;5402;50.004;8.246;2023-03-23T08:32:44;2.07;;;1.70;;
10701;SDS011;5402;50.004;8.246;2023-03-23T08:35:11;3.63;;;1.80;;
10701;SDS011;5402;50.004;8.246;2023-03-23T08:37:39;2.80;;;1.80;;
10701;SDS011;5402;50.004;8.246;2023-03-23T08:40:07;4.10;;;1.97;;
10701;SDS011;5402;50.004;8.246;2023-03-23T08:42:35;2.43;;;1.83;;
10701;SDS011;5402;50.004;8.246;2023-03-23T08:45:05;2.43;;;1.80;;
10701;SDS011;5402;50.004;8.246;2023-03-23T08:47:33;3.07;;;1.83;;
10701;SDS011;5402;50.004;8.246;2023-03-23T08:50:00;1.97;;;1.60;;
10701;SDS011;5402;50.004;8.246;2023-03-23T08:52:27;2.57;;;1.90;;
10701;SDS011;5402;50.004;8.246;2023-03-23T08:54:54;1.83;;;1.50;;
10701;SDS011;5402;50.004;8.246;2023-03-23T08:57:22;1.93;;;1.70;;
10701;SDS011;5402;50.004;8.246;2023-03-23T08:59:49;3.20;;;1.90;;
10701;SDS011;5402;50.004;8.246;2023-03-23T09:02:17;2.40;;;1.80;;
10701;SDS011;5402;50.004;8.246;2023-03-23T09:04:44;2.70;;;1.70;;
10701;SDS011;5402;50.004;8.246;2023-03-23T09:07:11;1.60;;;1.50;;
10701;SDS011;5402;50.004;8.246;2023-03-23T09:09:40;2.50;;;1.97;;
10701;SDS011;5402;50.004;8.246;2023-03-23T09:12:07;1.73;;;1.60;;
10701;SDS011;5402;50.004;8.246;2023-03-23T09:14:35;1.70;;;1.60;;
10701;SDS011;5402;50.004;8.246;2023-03-23T09:17:02;2.30;;;1.50;;
10701;SDS011;5402;50.004;8.246;2023-03-23T09:19:31;1.40;;;1.30;;
10701;SDS011;5402;50.004;8.246;2023-03-23T09:21:59;1.30;;;1.20;;
10701;SDS011;5402;50.004;8.246;2023-03-23T09:24:26;1.83;;;1.20;;
10701;SDS011;5402;50.004;8.246;2023-03-23T09:26:53;1.13;;;0.97;;
10701;SDS011;5402;50.004;8.246;2023-03-23T09:29:19;1.00;;;0.90;;
10701;SDS011;5402;50.004;8.246;2023-03-23T09:31:47;1.00;;;0.90;;
10701;SDS011;5402;50.004;8.246;2023-03-23T09:34:13;1.20;;;0.90;;
10701;SDS011;5402;50.004;8.246;2023-03-23T09:36:43;1.10;;;1.00;;
10701;SDS011;5402;50.004;8.246;2023-03-23T09:39:10;0.80;;;0.80;;
10701;SDS011;5402;50.004;8.246;2023-03-23T09:41:47;4.80;;;0.90;;
10701;SDS011;5402;50.004;8.246;2023-03-23T09:44:34;1.63;;;1.03;;
10701;SDS011;5402;50.004;8.246;2023-03-23T09:47:11;2.87;;;1.00;;
10701;SDS011;5402;50.004;8.246;2023-03-23T09:49:45;1.23;;;0.80;;
10701;SDS011;5402;50.004;8.246;2023-03-23T09:52:19;1.60;;;1.07;;
10701;SDS011;5402;50.004;8.246;2023-03-23T09:54:46;2.27;;;1.10;;
10701;SDS011;5402;50.004;8.246;2023-03-23T09:57:16;2.00;;;1.27;;
10701;SDS011;5402;50.004;8.246;2023-03-23T09:59:51;1.00;;;0.80;;
10701;SDS011;5402;50.004;8.246;2023-03-23T10:02:24;2.10;;;0.83;;
10701;SDS011;5402;50.004;8.246;2023-03-23T10:04:55;1.60;;;1.00;;
10701;SDS011;5402;50.004;8.246;2023-03-23T10:07:31;1.87;;;0.97;;
10701;SDS011;5402;50.004;8.246;2023-03-23T10:09:59;3.03;;;0.90;;
10701;SDS011;5402;50.004;8.246;2023-03-23T10:12:29;1.33;;;1.13;;
10701;SDS011;5402;50.004;8.246;2023-03-23T10:15:09;2.97;;;1.20;;
10701;SDS011;5402;50.004;8.246;2023-03-23T10:17:41;2.20;;;1.07;;
10701;SDS011;5402;50.004;8.246;2023-03-23T10:20:21;1.03;;;1.00;;
10701;SDS011;5402;50.004;8.246;2023-03-23T10:23:05;2.03;;;1.00;;
10701;SDS011;5402;50.004;8.246;2023-03-23T10:25:41;1.60;;;1.00;;
10701;SDS011;5402;50.004;8.246;2023-03-23T10:28:11;1.17;;;1.00;;
10701;SDS011;5402;50.004;8.246;2023-03-23T10:30:42;1.20;;;1.10;;
10701;SDS011;5402;50.004;8.246;2023-03-23T10:33:15;0.80;;;0.80;;
10701;SDS011;5402;50.004;8.246;2023-03-23T10:35:47;1.10;;;1.00;;
10701;SDS011;5402;50.004;8.246;2023-03-23T10:38:21;0.80;;;0.80;;
10701;SDS011;5402;50.004;8.246;2023-03-23T10:40:53;1.13;;;1.00;;
10701;SDS011;5402;50.004;8.246;2023-03-23T10:43:21;2.20;;;1.50;;
10701;SDS011;5402;50.004;8.246;2023-03-23T10:45:50;2.40;;;1.20;;
10701;SDS011;5402;50.004;8.246;2023-03-23T10:48:22;4.77;;;1.43;;
10701;SDS011;5402;50.004;8.246;2023-03-23T10:50:54;1.33;;;1.23;;
10701;SDS011;5402;50.004;8.246;2023-03-23T10:53:25;1.63;;;1.10;;
10701;SDS011;5402;50.004;8.246;2023-03-23T10:55:57;1.90;;;1.30;;
10701;SDS011;5402;50.004;8.246;2023-03-23T10:58:25;1.43;;;1.07;;
10701;SDS011;5402;50.004;8.246;2023-03-23T11:00:54;2.50;;;1.20;;
10701;SDS011;5402;50.004;8.246;2023-03-23T11:03:23;1.20;;;1.10;;
10701;SDS011;5402;50.004;8.246;2023-03-23T11:05:55;1.40;;;1.30;;
10701;SDS011;5402;50.004;8.246;2023-03-23T11:08:25;1.57;;;1.00;;
10701;SDS011;5402;50.004;8.246;2023-03-23T11:11:08;1.27;;;1.13;;
10701;SDS011;5402;50.004;8.246;2023-03-23T11:13:38;1.30;;;1.20;;
10701;SDS011;5402;50.004;8.246;2023-03-23T11:16:08;1.10;;;1.00;;
10701;SDS011;5402;50.004;8.246;2023-03-23T11:18:37;1.20;;;1.10;;
10701;SDS011;5402;50.004;8.246;2023-03-23T11:21:05;1.43;;;1.00;;
10701;SDS011;5402;50.004;8.246;2023-03-23T11:23:36;0.93;;;0.90;;
10701;SDS011;5402;50.004;8.246;2023-03-23T11:26:09;1.90;;;1.00;;
10701;SDS011;5402;50.004;8.246;2023-03-23T11:28:42;1.20;;;1.10;;
10701;SDS011;5402;50.004;8.246;2023-03-23T11:31:10;1.13;;;1.03;;
10701;SDS011;5402;50.004;8.246;2023-03-23T11:33:38;1.70;;;1.10;;
10701;SDS011;5402;50.004;8.246;2023-03-23T11:36:12;0.90;;;0.90;;
10701;SDS011;5402;50.004;8.246;2023-03-23T11:38:41;0.97;;;0.97;;
10701;SDS011;5402;50.004;8.246;2023-03-23T11:41:10;1.33;;;1.10;;
10701;SDS011;5402;50.004;8.246;2023-03-23T11:43:39;1.40;;;1.13;;
10701;SDS011;5402;50.004;8.246;2023-03-23T11:46:11;1.20;;;0.97;;
10701;SDS011;5402;50.004;8.246;2023-03-23T11:48:49;1.07;;;0.87;;
10701;SDS011;5402;50.004;8.246;2023-03-23T11:51:23;0.70;;;0.70;;
10701;SDS011;5402;50.004;8.246;2023-03-23T11:53:59;1.37;;;1.20;;
10701;SDS011;5402;50.004;8.246;2023-03-23T11:56:31;1.83;;;0.90;;
10701;SDS011;5402;50.004;8.246;2023-03-23T11:59:01;1.37;;;1.10;;
10701;SDS011;5402;50.004;8.246;2023-03-23T12:01:37;1.43;;;1.10;;
10701;SDS011;5402;50.004;8.246;2023-03-23T12:07:32;1.10;;;1.10;;
10701;SDS011;5402;50.004;8.246;2023-03-23T12:10:13;3.40;;;1.10;;
10701;SDS011;5402;50.004;8.246;2023-03-23T12:12:50;2.40;;;1.13;;
10701;SDS011;5402;50.004;8.246;2023-03-23T12:15:28;1.00;;;0.90;;
10701;SDS011;5402;50.004;8.246;2023-03-23T12:18:03;1.07;;;0.90;;
10701;SDS011;5402;50.004;8.246;2023-03-23T12:20:41;1.37;;;1.00;;
10701;SDS011;5402;50.004;8.246;2023-03-23T12:23:22;1.90;;;1.07;;
10701;SDS011;5402;50.004;8.246;2023-03-23T12:26:08;1.30;;;1.20;;
10701;SDS011;5402;50.004;8.246;2023-03-23T12:28:48;0.90;;;0.90;;
10701;SDS011;5402;50.004;8.246;2023-03-23T12:31:27;1.07;;;1.00;;
10701;SDS011;5402;50.004;8.246;2023-03-23T12:34:01;1.10;;;0.97;;
10701;SDS011;5402;50.004;8.246;2023-03-23T12:36:43;1.00;;;0.90;;
10701;SDS011;5402;50.004;8.246;2023-03-23T12:39:31;1.50;;;0.93;;
10701;SDS011;5402;50.004;8.246;2023-03-23T12:42:18;2.80;;;1.10;;
10701;SDS011;5402;50.004;8.246;2023-03-23T12:44:53;1.20;;;1.10;;
10701;SDS011;5402;50.004;8.246;2023-03-23T12:50:13;3.03;;;1.33;;
10701;SDS011;5402;50.004;8.246;2023-03-23T12:52:47;2.73;;;1.10;;
10701;SDS011;5402;50.004;8.246;2023-03-23T12:55:23;1.83;;;1.17;;
10701;SDS011;5402;50.004;8.246;2023-03-23T12:58:00;1.20;;;1.07;;
10701;SDS011;5402;50.004;8.246;2023-03-23T13:00:31;1.17;;;1.07;;
10701;SDS011;5402;50.004;8.246;2023-03-23T13:03:17;1.27;;;1.00;;
10701;SDS011;5402;50.004;8.246;2023-03-23T13:05:52;1.60;;;1.13;;
10701;SDS011;5402;50.004;8.246;2023-03-23T13:08:24;1.50;;;1.10;;
10701;SDS011;5402;50.004;8.246;2023-03-23T13:10:55;1.40;;;1.13;;
10701;SDS011;5402;50.004;8.246;2023-03-23T13:13:39;1.10;;;1.00;;
10701;SDS011;5402;50.004;8.246;2023-03-23T13:16:13;1.53;;;1.20;;
10701;SDS011;5402;50.004;8.246;2023-03-23T13:18:47;1.57;;;1.20;;
10701;SDS011;5402;50.004;8.246;2023-03-23T13:21:21;1.13;;;1.03;;
10701;SDS011;5402;50.004;8.246;2023-03-23T13:23:53;2.53;;;1.17;;
10701;SDS011;5402;50.004;8.246;2023-03-23T13:26:22;1.63;;;1.23;;
10701;SDS011;5402;50.004;8.246;2023-03-23T13:28:58;0.97;;;0.97;;
10701;SDS011;5402;50.004;8.246;2023-03-23T13:31:28;2.83;;;1.10;;
10701;SDS011;5402;50.004;8.246;2023-03-23T13:33:59;1.33;;;1.10;;
10701;SDS011;5402;50.004;8.246;2023-03-23T13:36:29;0.93;;;0.93;;
10701;SDS011;5402;50.004;8.246;2023-03-23T13:38:58;1.50;;;1.03;;
10701;SDS011;5402;50.004;8.246;2023-03-23T13:41:26;1.57;;;1.00;;
10701;SDS011;5402;50.004;8.246;2023-03-23T13:44:05;1.20;;;1.10;;
10701;SDS011;5402;50.004;8.246;2023-03-23T13:46:53;1.70;;;1.10;;
10701;SDS011;5402;50.004;8.246;2023-03-23T13:49:22;1.43;;;1.10;;
10701;SDS011;5402;50.004;8.246;2023-03-23T13:51:59;1.63;;;0.90;;
10701;SDS011;5402;50.004;8.246;2023-03-23T13:54:38;1.00;;;1.00;;
10701;SDS011;5402;50.004;8.246;2023-03-23T13:57:20;1.40;;;1.30;;
10701;SDS011;5402;50.004;8.246;2023-03-23T13:59:58;2.83;;;1.17;;
10701;SDS011;5402;50.004;8.246;2023-03-23T14:02:35;1.00;;;1.00;;
10701;SDS011;5402;50.004;8.246;2023-03-23T14:05:19;3.00;;;1.20;;
10701;SDS011;5402;50.004;8.246;2023-03-23T14:08:01;1.40;;;1.30;;
10701;SDS011;5402;50.004;8.246;2023-03-23T14:10:36;1.33;;;1.23;;
10701;SDS011;5402;50.004;8.246;2023-03-23T14:13:06;1.33;;;1.20;;
10701;SDS011;5402;50.004;8.246;2023-03-23T14:15:43;1.40;;;1.30;;
10701;SDS011;5402;50.004;8.246;2023-03-23T14:18:19;2.40;;;1.10;;
10701;SDS011;5402;50.004;8.246;2023-03-23T14:20:49;3.80;;;1.30;;
10701;SDS011;5402;50.004;8.246;2023-03-23T14:23:16;1.50;;;1.20;;
10701;SDS011;5402;50.004;8.246;2023-03-23T14:25:45;1.57;;;1.47;;
10701;SDS011;5402;50.004;8.246;2023-03-23T14:28:21;1.57;;;1.17;;
10701;SDS011;5402;50.004;8.246;2023-03-23T14:30:51;1.97;;;1.30;;
10701;SDS011;5402;50.004;8.246;2023-03-23T14:33:19;1.50;;;1.40;;
10701;SDS011;5402;50.004;8.246;2023-03-23T14:35:47;1.30;;;1.20;;
10701;SDS011;5402;50.004;8.246;2023-03-23T14:38:15;1.30;;;1.20;;
10701;SDS011;5402;50.004;8.246;2023-03-23T14:40:44;1.03;;;1.00;;
10701;SDS011;5402;50.004;8.246;2023-03-23T14:43:13;3.60;;;1.30;;
10701;SDS011;5402;50.004;8.246;2023-03-23T14:45:42;1.33;;;1.07;;
10701;SDS011;5402;50.004;8.246;2023-03-23T14:48:12;1.67;;;1.10;;
10701;SDS011;5402;50.004;8.246;2023-03-23T14:50:41;2.87;;;1.47;;
10701;SDS011;5402;50.004;8.246;2023-03-23T14:53:16;1.33;;;1.10;;
10701;SDS011;5402;50.004;8.246;2023-03-23T14:55:46;1.63;;;1.20;;
10701;SDS011;5402;50.004;8.246;2023-03-23T14:58:16;3.27;;;1.30;;
10701;SDS011;5402;50.004;8.246;2023-03-23T15:00:45;1.73;;;1.10;;
10701;SDS011;5402;50.004;8.246;2023-03-23T15:03:17;1.40;;;1.30;;
10701;SDS011;5402;50.004;8.246;2023-03-23T15:05:46;1.87;;;1.30;;
10701;SDS011;5402;50.004;8.246;2023-03-23T15:08:17;1.23;;;1.13;;
10701;SDS011;5402;50.004;8.246;2023-03-23T15:10:51;3.30;;;1.30;;
10701;SDS011;5402;50.004;8.246;2023-03-23T15:13:19;1.40;;;1.30;;
10701;SDS011;5402;50.004;8.246;2023-03-23T15:15:46;2.30;;;1.33;;
10701;SDS011;5402;50.004;8.246;2023-03-23T15:18:22;1.40;;;1.30;;
10701;SDS011;5402;50.004;8.246;2023-03-23T15:20:56;1.13;;;1.10;;
10701;SDS011;5402;50.004;8.246;2023-03-23T15:23:26;1.50;;;1.23;;
10701;SDS011;5402;50.004;8.246;2023-03-23T15:25:55;1.70;;;1.33;;
10701;SDS011;5402;50.004;8.246;2023-03-23T15:28:32;3.73;;;1.60;;
10701;SDS011;5402;50.004;8.246;2023-03-23T15:31:05;1.80;;;1.20;;
10701;SDS011;5402;50.004;8.246;2023-03-23T15:33:37;1.37;;;0.87;;